KSMF METAR and TAF | Updated Today

KSMF METAR

Sacramento International Airport

Observation time: 55 min. ago

KSMF 292253Z 35005KT 10SM CLR 20/12 A3011 RMK AO2 SLP195 T02000122

Need help? Read our tutorial on how to read METARs or read the parsed version below.

Sacramento International Airport (KSMF) METAR

  • Weather conditions on Mon, 29 Nov 2021 22:53:00 +0000 (55 min. ago):
  • Present conditions: Dry
  • Clouds: Clear skies
  • Visibility: 16093 meters
  • Wind: 350 degrees at 5 knots
  • Temperature: 20 celsius
  • Dew point: 12 celsius
  • Pressure: 30.11 inHg
  • Remarks: AO2 SLP195 T02000122


Useful to know...

KSMF TAF

Sacramento International Airport

KSMF 291720Z 2918/3018 33004KT P6SM FEW250 FM300700 VRB03KT 4SM BR FEW250 FM301300 34002KT 2SM BR BCFG FEW250
Observation time: 6:28 hr. ago
Need help? Read our tutorial on how to read TAFs or read the parsed version below.

Parsed version of TAF for Sacramento International Airport (KSMF)

  • From 29 November at 18:00 UTC, to day 30 of the month at 18:00 UTC
  • Clouds: A few at 7620 meters
  • Wind: 330 degrees at 4
  • From day 30 of the month at 07:00 UTC
  • Clouds: A few at 7620 meters
  • Visibility: 6437 meters
  • Wind: Variable at 3
  • Other: Mist
  • From day 30 of the month at 13:00 UTC
  • Clouds: A few at 7620 meters
  • Visibility: 3219 meters
  • Wind: 340 degrees at 2
  • Other: Mist; patches of fog